Edneyville, NC (28727)

6:03 AM EST on February 11, 2016 (GMT -0500)
North Ridge Road | | Change Station
CLOSE
Current Station
Personal Weather Station
Location: Hendersonville, NC
Elevation: 2218 ft
Nearby Weather Stations

Elev 2218 ft 35.38 °N, 82.35 °W | Updated 42 seconds ago

Overcast
Overcast
17.8 °F
Feels Like 18 °F
N
0.0
Wind Variable Wind from West
Gusts 15.0 mph

Today
High -- | Low -- °F
--% Chance of Precip.
Yesterday
High -- | Low -- °F
Precip. -- in
Pressure 30.12 in
Visibility 10.0 miles
Clouds Few 5000 ft
Windchill 18 °F
Dew Point 12 °F
Humidity 79%
Rainfall 0.00 in
Snow Depth Not available.
7:20 AM 6:07 PM
Waxing Crescent, 11% visible
METAR KAVL 111054Z AUTO 33007KT 10SM FEW050 M07/M11 A3006 RMK AO2 SLP199 T10671111
Pressure 30.12 in
Visibility 10.0 miles
Clouds Few 5000 ft
Windchill 18 °F
Dew Point 12 °F
Humidity 79%
Rainfall 0.00 in
Snow Depth Not available.
7:20 AM 6:07 PM
Waxing Crescent, 11% visible
METAR KAVL 111054Z AUTO 33007KT 10SM FEW050 M07/M11 A3006 RMK AO2 SLP199 T10671111

10-Day Weather Forecast

Almanac

Astronomy

Feb. 11, 2016 Rise Set
Actual Time
Civil Twilight
Nautical Twilight
Astronomical Twilight
Moon
Length of Visible Light
Length of Day
Tomorrow will be .
, % of the Moon is Illuminated

Today's Extremes

State Highs State Lows

Community

WunderPhotos

Upload Photos

1,892,030 photos uploaded!

WunderBlog® & News

Nearby

Air Quality

  Air Quality AQ Index Pollutant
Not available.

Snow Depth

Station Depth Elevation

Earthquake Activity

City Distance Mag. Time & Date
Minimum magnitude displayed is 2.5.

Coastal Water Temperatures

Place Temperature

Stations

Nearby Weather Stations

Station Location Temp. Windchill Dew Point Humidity Wind Precip. Elev Updated Type
                   

Watches & Warnings

There are currently no watches in effect.